^^
Grace C. Lehan Memorial Weather Station Historical Data
Daily Summary for January 27, 2022 Units:  Both    English   Metric
Daily Weekly Monthly Yearly
  High: Low: Average:
Temperature: 29.1 °F /  -1.6 °C 8 °F /  -13.3 °C 19.9 °F /  -6.7 °C
Dew Point: 18.9 °F /  -7.3 °C 2.3 °F /  -16.5 °C 9.1 °F /  -12.7 °C
Humidity: 84.5% 40.9% 64%
Wind Speed: 3.7mph /  6km/h - 0.4mph /  0.6km/h
Wind Gust: 12mph /  19.3km/h - -
Wind- - SW
Pressure: 30.49 in /  1032.4 hPa 30.18 in /  1021.9 hPa -
Precipitation: 0.00 in /  0 mm    
 
 
Tabular Data for January 27, 2022
Time Temperature Dew Point Pressure Wind Wind Speed Wind Gust Humidity Rainfall Rate (Hourly) solar
00:04 15.3 °F /  -9.3 °C 2.8 °F /  -16.2 °C 30.45in /  1031hPa Calm   7mph /  11.3km/h 57% 0.00in /  0mm 0 W/m2
00:09 15.3 °F /  -9.3 °C 2.8 °F /  -16.2 °C 30.45in /  1031hPa Calm   1mph /  1.6km/h 57% 0.00in /  0mm 0 W/m2
00:14 15.2 °F /  -9.3 °C 2.7 °F /  -16.3 °C 30.45in /  1031hPa Calm   1mph /  1.6km/h 57% 0.00in /  0mm 0 W/m2
00:19 15.1 °F /  -9.4 °C 2.6 °F /  -16.3 °C 30.45in /  1031hPa Calm   1mph /  1.6km/h 57% 0.00in /  0mm 0 W/m2
00:24 15 °F /  -9.4 °C 2.5 °F /  -16.4 °C 30.45in /  1031hPa Calm   1mph /  1.6km/h 57% 0.00in /  0mm 0 W/m2
00:29 14.9 °F /  -9.5 °C 2.5 °F /  -16.4 °C 30.45in /  1031hPa Calm   1mph /  1.6km/h 57% 0.00in /  0mm 0 W/m2
00:34 14.8 °F /  -9.6 °C 2.4 °F /  -16.4 °C 30.45in /  1031hPa Calm   1mph /  1.6km/h 57% 0.00in /  0mm 0 W/m2
00:39 14.7 °F /  -9.6 °C 2.3 °F /  -16.5 °C 30.45in /  1031hPa Calm     57.1% 0.00in /  0mm 0 W/m2
00:44 14.6 °F /  -9.7 °C 2.5 °F /  -16.4 °C 30.45in /  1031hPa Calm   1mph /  1.6km/h 58% 0.00in /  0mm 0 W/m2
00:49 14.5 °F /  -9.7 °C 2.4 °F /  -16.4 °C 30.45in /  1031hPa Calm   1mph /  1.6km/h 58% 0.00in /  0mm 0 W/m2
00:54 14.4 °F /  -9.8 °C 2.7 °F /  -16.3 °C 30.45in /  1031hPa Calm   1mph /  1.6km/h 58.9% 0.00in /  0mm 0 W/m2
00:59 14.3 °F /  -9.8 °C 2.6 °F /  -16.3 °C 30.45in /  1031hPa Calm   1mph /  1.6km/h 59% 0.00in /  0mm 0 W/m2
01:04 14.2 °F /  -9.9 °C 2.5 °F /  -16.4 °C 30.45in /  1031hPa Calm   1mph /  1.6km/h 59% 0.00in /  0mm 0 W/m2
01:09 14.1 °F /  -9.9 °C 2.4 °F /  -16.4 °C 30.45in /  1031hPa Calm     59% 0.00in /  0mm 0 W/m2
01:14 14 °F /  -10 °C 2.7 °F /  -16.3 °C 30.45in /  1031hPa Calm     60% 0.00in /  0mm 0 W/m2
01:19 13.9 °F /  -10.1 °C 2.6 °F /  -16.3 °C 30.45in /  1031hPa Calm     60% 0.00in /  0mm 0 W/m2
01:24 13.7 °F /  -10.2 °C 2.7 °F /  -16.3 °C 30.45in /  1031hPa Calm     60.8% 0.00in /  0mm 0 W/m2
01:29 13.5 °F /  -10.3 °C 3 °F /  -16.1 °C 30.46in /  1031.4hPa Calm     62% 0.00in /  0mm 0 W/m2
01:34 13.3 °F /  -10.4 °C 2.7 °F /  -16.3 °C 30.46in /  1031.4hPa Calm     62% 0.00in /  0mm 0 W/m2
01:39 13.1 °F /  -10.5 °C 2.6 °F /  -16.3 °C 30.46in /  1031.4hPa Calm     62% 0.00in /  0mm 0 W/m2
01:44 13 °F /  -10.6 °C 2.7 °F /  -16.3 °C 30.46in /  1031.4hPa Calm     62.7% 0.00in /  0mm 0 W/m2
01:49 13 °F /  -10.6 °C 2.6 °F /  -16.3 °C 30.47in /  1031.7hPa Calm     62.4% 0.00in /  0mm 0 W/m2
01:54 13 °F /  -10.6 °C 2.5 °F /  -16.4 °C 30.47in /  1031.7hPa Calm     62.3% 0.00in /  0mm 0 W/m2
01:59 12.9 °F /  -10.6 °C 2.8 °F /  -16.2 °C 30.46in /  1031.4hPa Calm     63.4% 0.00in /  0mm 0 W/m2
02:04 12.8 °F /  -10.7 °C 2.9 °F /  -16.2 °C 30.46in /  1031.4hPa Calm     64% 0.00in /  0mm 0 W/m2
02:09 12.7 °F /  -10.7 °C 2.8 °F /  -16.2 °C 30.46in /  1031.4hPa Calm     64% 0.00in /  0mm 0 W/m2
02:14 12.6 °F /  -10.8 °C 3.1 °F /  -16.1 °C 30.46in /  1031.4hPa Calm     65% 0.00in /  0mm 0 W/m2
02:19 12.5 °F /  -10.8 °C 3 °F /  -16.1 °C 30.46in /  1031.4hPa Calm     65% 0.00in /  0mm 0 W/m2
02:24 12.3 °F /  -10.9 °C 3.2 °F /  -16 °C 30.46in /  1031.4hPa Calm     66.3% 0.00in /  0mm 0 W/m2
02:29 12.2 °F /  -11 °C 3.3 °F /  -15.9 °C 30.46in /  1031.4hPa Calm     67% 0.00in /  0mm 0 W/m2
02:34 12 °F /  -11.1 °C 3.2 °F /  -16 °C 30.46in /  1031.4hPa Calm     67% 0.00in /  0mm 0 W/m2
02:39 11.8 °F /  -11.2 °C 3.2 °F /  -16 °C 30.46in /  1031.4hPa Calm     67.7% 0.00in /  0mm 0 W/m2
02:44 11.6 °F /  -11.3 °C 3.2 °F /  -16 °C 30.46in /  1031.4hPa Calm     68.2% 0.00in /  0mm 0 W/m2
02:49 11.5 °F /  -11.4 °C 3.3 °F /  -15.9 °C 30.46in /  1031.4hPa Calm     69% 0.00in /  0mm 0 W/m2
02:54 11.4 °F /  -11.4 °C 3.4 °F /  -15.9 °C 30.46in /  1031.4hPa Calm     69.7% 0.00in /  0mm 0 W/m2
02:59 11.2 °F /  -11.6 °C 3.4 °F /  -15.9 °C 30.46in /  1031.4hPa Calm     70.1% 0.00in /  0mm 0 W/m2
03:04 11.1 °F /  -11.6 °C 3.6 °F /  -15.8 °C 30.46in /  1031.4hPa Calm     71% 0.00in /  0mm 0 W/m2
03:09 11 °F /  -11.7 °C 3.4 °F /  -15.9 °C 30.46in /  1031.4hPa Calm     71% 0.00in /  0mm 0 W/m2
03:14 10.8 °F /  -11.8 °C 3.3 °F /  -15.9 °C 30.46in /  1031.4hPa Calm     71% 0.00in /  0mm 0 W/m2
03:19 10.7 °F /  -11.8 °C 3.2 °F /  -16 °C 30.46in /  1031.4hPa Calm     71.2% 0.00in /  0mm 0 W/m2
03:24 10.6 °F /  -11.9 °C 3.4 °F /  -15.9 °C 30.45in /  1031hPa Calm     72.4% 0.00in /  0mm 0 W/m2
03:29 10.5 °F /  -11.9 °C 3.5 °F /  -15.8 °C 30.46in /  1031.4hPa Calm     73% 0.00in /  0mm 0 W/m2
03:34 10.4 °F /  -12 °C 3.5 °F /  -15.8 °C 30.46in /  1031.4hPa Calm     73% 0.00in /  0mm 0 W/m2
03:39 10.3 °F /  -12.1 °C 3.4 °F /  -15.9 °C 30.45in /  1031hPa Calm     73% 0.00in /  0mm 0 W/m2
03:44 10.3 °F /  -12.1 °C 3.4 °F /  -15.9 °C 30.46in /  1031.4hPa Calm     73% 0.00in /  0mm 0 W/m2
03:49 10.3 °F /  -12.1 °C 3.5 °F /  -15.8 °C 30.46in /  1031.4hPa Calm     73.5% 0.00in /  0mm 0 W/m2
03:54 10.2 °F /  -12.1 °C 3.3 °F /  -15.9 °C 30.46in /  1031.4hPa Calm   1mph /  1.6km/h 73% 0.00in /  0mm 0 W/m2
03:59 10.1 °F /  -12.2 °C 3.4 °F /  -15.9 °C 30.46in /  1031.4hPa NW 0.2mph /  0.3km/h 1mph /  1.6km/h 73.7% 0.00in /  0mm 0 W/m2
04:09 9.7 °F /  -12.4 °C 3.4 °F /  -15.9 °C 30.45in /  1031hPa Calm     74.9% 0.00in /  0mm 0 W/m2
04:14 9.6 °F /  -12.4 °C 3.3 °F /  -15.9 °C 30.45in /  1031hPa Calm     75% 0.00in /  0mm 0 W/m2
04:19 9.5 °F /  -12.5 °C 3.2 °F /  -16 °C 30.45in /  1031hPa Calm     75% 0.00in /  0mm 0 W/m2
04:24 9.4 °F /  -12.6 °C 3.1 °F /  -16.1 °C 30.45in /  1031hPa Calm     75% 0.00in /  0mm 0 W/m2
04:29 9.4 °F /  -12.6 °C 3.1 °F /  -16.1 °C 30.45in /  1031hPa Calm     75% 0.00in /  0mm 0 W/m2
04:34 9.3 °F /  -12.6 °C 3 °F /  -16.1 °C 30.45in /  1031hPa Calm     75% 0.00in /  0mm 0 W/m2
04:39 9.2 °F /  -12.7 °C 2.9 °F /  -16.2 °C 30.45in /  1031hPa Calm     75.2% 0.00in /  0mm 0 W/m2
04:44 9.1 °F /  -12.7 °C 3.1 °F /  -16.1 °C 30.45in /  1031hPa Calm     76% 0.00in /  0mm 0 W/m2
04:49 9.1 °F /  -12.7 °C 3.1 °F /  -16.1 °C 30.45in /  1031hPa Calm     76% 0.00in /  0mm 0 W/m2
04:54 9 °F /  -12.8 °C 3 °F /  -16.1 °C 30.44in /  1030.7hPa Calm     76% 0.00in /  0mm 0 W/m2
04:59 9 °F /  -12.8 °C 3 °F /  -16.1 °C 30.45in /  1031hPa Calm     76% 0.00in /  0mm 0 W/m2
05:04 8.9 °F /  -12.8 °C 3 °F /  -16.1 °C 30.45in /  1031hPa Calm     76.5% 0.00in /  0mm 0 W/m2
05:09 8.9 °F /  -12.8 °C 3.2 °F /  -16 °C 30.45in /  1031hPa Calm     77% 0.00in /  0mm 0 W/m2
05:14 8.9 °F /  -12.8 °C 3.2 °F /  -16 °C 30.45in /  1031hPa Calm     77% 0.00in /  0mm 0 W/m2
05:19 8.9 °F /  -12.8 °C 3.2 °F /  -16 °C 30.45in /  1031hPa Calm     77% 0.00in /  0mm 0 W/m2
05:24 8.9 °F /  -12.8 °C 3.2 °F /  -16 °C 30.46in /  1031.4hPa Calm     77% 0.00in /  0mm 0 W/m2
05:29 8.9 °F /  -12.8 °C 3.2 °F /  -16 °C 30.45in /  1031hPa Calm     77% 0.00in /  0mm 0 W/m2
05:34 8.9 °F /  -12.8 °C 3.2 °F /  -16 °C 30.45in /  1031hPa Calm     77% 0.00in /  0mm 0 W/m2
05:39 8.9 °F /  -12.8 °C 3.1 °F /  -16.1 °C 30.46in /  1031.4hPa Calm     77% 0.00in /  0mm 0 W/m2
05:44 8.8 °F /  -12.9 °C 3.1 °F /  -16.1 °C 30.46in /  1031.4hPa Calm     77% 0.00in /  0mm 0 W/m2
05:49 8.8 °F /  -12.9 °C 3.1 °F /  -16.1 °C 30.46in /  1031.4hPa Calm     77% 0.00in /  0mm 0 W/m2
05:54 8.8 °F /  -12.9 °C 3.2 °F /  -16 °C 30.47in /  1031.7hPa Calm     77.5% 0.00in /  0mm 0 W/m2
05:59 8.8 °F /  -12.9 °C 3.3 °F /  -15.9 °C 30.47in /  1031.7hPa Calm     78% 0.00in /  0mm 0 W/m2
06:04 8.7 °F /  -12.9 °C 3.3 °F /  -15.9 °C 30.47in /  1031.7hPa Calm     78% 0.00in /  0mm 0 W/m2
06:09 8.6 °F /  -13 °C 3.2 °F /  -16 °C 30.47in /  1031.7hPa Calm     78% 0.00in /  0mm 0 W/m2
06:14 8.5 °F /  -13.1 °C 3.1 °F /  -16.1 °C 30.47in /  1031.7hPa Calm     78.2% 0.00in /  0mm 0 W/m2
06:19 8.4 °F /  -13.1 °C 3.2 °F /  -16 °C 30.47in /  1031.7hPa Calm     79% 0.00in /  0mm 0 W/m2
06:24 8.3 °F /  -13.2 °C 3.1 °F /  -16.1 °C 30.47in /  1031.7hPa Calm     79% 0.00in /  0mm 0 W/m2
06:29 8.3 °F /  -13.2 °C 3.1 °F /  -16.1 °C 30.48in /  1032.1hPa Calm     79% 0.00in /  0mm 0 W/m2
06:34 8.2 °F /  -13.2 °C 3.2 °F /  -16 °C 30.48in /  1032.1hPa Calm     79.7% 0.00in /  0mm 0 W/m2
06:39 8.2 °F /  -13.2 °C 3.3 °F /  -15.9 °C 30.48in /  1032.1hPa Calm     80% 0.00in /  0mm 0 W/m2
06:44 8.2 °F /  -13.2 °C 3.3 °F /  -15.9 °C 30.47in /  1031.7hPa Calm     80% 0.00in /  0mm 0 W/m2
06:49 8.2 °F /  -13.2 °C 3.3 °F /  -15.9 °C 30.47in /  1031.7hPa Calm     80% 0.00in /  0mm 0 W/m2
06:54 8.1 °F /  -13.3 °C 3.2 °F /  -16 °C 30.47in /  1031.7hPa Calm     80% 0.00in /  0mm 0 W/m2
06:59 8.1 °F /  -13.3 °C 3.2 °F /  -16 °C 30.47in /  1031.7hPa Calm     80% 0.00in /  0mm 0 W/m2
07:04 8 °F /  -13.3 °C 3.1 °F /  -16.1 °C 30.47in /  1031.7hPa Calm     80% 0.00in /  0mm 0 W/m2
07:09 8 °F /  -13.3 °C 3.1 °F /  -16.1 °C 30.47in /  1031.7hPa Calm     80% 0.00in /  0mm 5 W/m2
07:14 8 °F /  -13.3 °C 3.2 °F /  -16 °C 30.47in /  1031.7hPa Calm     80.4% 0.00in /  0mm 7 W/m2
07:19 8 °F /  -13.3 °C 3.4 °F /  -15.9 °C 30.48in /  1032.1hPa Calm     81% 0.00in /  0mm 11 W/m2
07:24 8 °F /  -13.3 °C 3.4 °F /  -15.9 °C 30.48in /  1032.1hPa Calm     81% 0.00in /  0mm 14 W/m2
07:29 8.1 °F /  -13.3 °C 3.8 °F /  -15.7 °C 30.48in /  1032.1hPa Calm     82% 0.00in /  0mm 21 W/m2
07:34 8.3 °F /  -13.2 °C 3.9 °F /  -15.6 °C 30.48in /  1032.1hPa Calm     82% 0.00in /  0mm 35 W/m2
07:39 8.5 °F /  -13.1 °C 4.2 °F /  -15.4 °C 30.47in /  1031.7hPa Calm     82% 0.00in /  0mm 56 W/m2
07:44 8.9 °F /  -12.8 °C 4.8 °F /  -15.1 °C 30.48in /  1032.1hPa Calm     82.9% 0.00in /  0mm 60 W/m2
07:49 9.4 °F /  -12.6 °C 5.7 °F /  -14.6 °C 30.48in /  1032.1hPa Calm     84.5% 0.00in /  0mm 28 W/m2
07:54 9.8 °F /  -12.3 °C 5.5 °F /  -14.7 °C 30.48in /  1032.1hPa Calm     82% 0.00in /  0mm 32 W/m2
07:59 10.2 °F /  -12.1 °C 5.6 °F /  -14.7 °C 30.49in /  1032.4hPa Calm     81.5% 0.00in /  0mm 54 W/m2
08:00 10.4 °F /  -12 °C 5.7 °F /  -14.6 °C 30.48in /  1032.1hPa Calm     81% 0.00in /  0mm 46 W/m2
08:09 11.1 °F /  -11.6 °C 6.4 °F /  -14.2 °C 30.48in /  1032.1hPa NW 0.1mph /  0.2km/h 2mph /  3.2km/h 81% 0.00in /  0mm 62 W/m2
08:14 11.6 °F /  -11.3 °C 7.2 °F /  -13.8 °C 30.48in /  1032.1hPa Calm   2mph /  3.2km/h 82.3% 0.00in /  0mm 58 W/m2
08:19 11.9 °F /  -11.2 °C 6.9 °F /  -13.9 °C 30.48in /  1032.1hPa Calm   2mph /  3.2km/h 79.6% 0.00in /  0mm 51 W/m2
08:24 12.3 °F /  -10.9 °C 7 °F /  -13.9 °C 30.48in /  1032.1hPa Calm   2mph /  3.2km/h 79% 0.00in /  0mm 223 W/m2
08:29 12.6 °F /  -10.8 °C 7.1 °F /  -13.8 °C 30.48in /  1032.1hPa Calm   2mph /  3.2km/h 78.3% 0.00in /  0mm 229 W/m2
08:34 13.2 °F /  -10.4 °C 7.7 °F /  -13.5 °C 30.48in /  1032.1hPa Calm   2mph /  3.2km/h 78.2% 0.00in /  0mm 216 W/m2
08:39 14.2 °F /  -9.9 °C 8.7 °F /  -12.9 °C 30.49in /  1032.4hPa Calm     78.6% 0.00in /  0mm 253 W/m2
08:44 15.2 °F /  -9.3 °C 9.3 °F /  -12.6 °C 30.48in /  1032.1hPa NW 0.2mph /  0.3km/h 2mph /  3.2km/h 77.1% 0.00in /  0mm 295 W/m2
08:49 16.1 °F /  -8.8 °C 9.7 °F /  -12.4 °C 30.48in /  1032.1hPa Calm   2mph /  3.2km/h 75.3% 0.00in /  0mm 302 W/m2
08:54 16.9 °F /  -8.4 °C 9.8 °F /  -12.3 °C 30.48in /  1032.1hPa Calm   2mph /  3.2km/h 73.2% 0.00in /  0mm 304 W/m2
08:59 17.6 °F /  -8 °C 10 °F /  -12.2 °C 30.48in /  1032.1hPa Calm   2mph /  3.2km/h 71.5% 0.00in /  0mm 316 W/m2
09:04 18.3 °F /  -7.6 °C 10.1 °F /  -12.2 °C 30.48in /  1032.1hPa Calm   2mph /  3.2km/h 69.8% 0.00in /  0mm 329 W/m2
09:09 18.9 °F /  -7.3 °C 10.2 °F /  -12.1 °C 30.48in /  1032.1hPa Calm   1mph /  1.6km/h 68.4% 0.00in /  0mm 345 W/m2
09:14 19.7 °F /  -6.8 °C 10.6 °F /  -11.9 °C 30.48in /  1032.1hPa NW 0.3mph /  0.5km/h 2mph /  3.2km/h 67.4% 0.00in /  0mm 352 W/m2
09:19 20.2 °F /  -6.6 °C 10.3 °F /  -12.1 °C 30.48in /  1032.1hPa Calm   2mph /  3.2km/h 65.1% 0.00in /  0mm 366 W/m2
09:24 20.5 °F /  -6.4 °C 10.3 °F /  -12.1 °C 30.47in /  1031.7hPa NW 0.7mph /  1.1km/h 2mph /  3.2km/h 64% 0.00in /  0mm 373 W/m2
09:29 21 °F /  -6.1 °C 10.5 °F /  -11.9 °C 30.47in /  1031.7hPa Calm   2mph /  3.2km/h 63.2% 0.00in /  0mm 385 W/m2
09:34 21.2 °F /  -6 °C 10.2 °F /  -12.1 °C 30.47in /  1031.7hPa Calm   2mph /  3.2km/h 62% 0.00in /  0mm 385 W/m2
09:39 21.1 °F /  -6.1 °C 10.2 °F /  -12.1 °C 30.47in /  1031.7hPa Calm   1mph /  1.6km/h 62% 0.00in /  0mm 315 W/m2
09:44 21.1 °F /  -6.1 °C 10.1 °F /  -12.2 °C 30.46in /  1031.4hPa NW 0.1mph /  0.2km/h 2mph /  3.2km/h 61.9% 0.00in /  0mm 397 W/m2
09:49 20.9 °F /  -6.2 °C 9.4 °F /  -12.6 °C 30.46in /  1031.4hPa Calm   2mph /  3.2km/h 60.5% 0.00in /  0mm 399 W/m2
09:54 20.5 °F /  -6.4 °C 9 °F /  -12.8 °C 30.46in /  1031.4hPa Calm   2mph /  3.2km/h 60.4% 0.00in /  0mm 378 W/m2
09:59 20.4 °F /  -6.4 °C 8.9 °F /  -12.8 °C 30.46in /  1031.4hPa Calm   2mph /  3.2km/h 60.7% 0.00in /  0mm 316 W/m2
10:04 20.3 °F /  -6.5 °C 9 °F /  -12.8 °C 30.46in /  1031.4hPa Calm   2mph /  3.2km/h 61% 0.00in /  0mm 225 W/m2
10:09 20.2 °F /  -6.6 °C 8.7 °F /  -12.9 °C 30.46in /  1031.4hPa Calm     60.6% 0.00in /  0mm 294 W/m2
10:14 20.2 °F /  -6.6 °C 9 °F /  -12.8 °C 30.45in /  1031hPa Calm     61.3% 0.00in /  0mm 446 W/m2
10:19 20.6 °F /  -6.3 °C 9.2 °F /  -12.7 °C 30.45in /  1031hPa NW 0.1mph /  0.2km/h 2mph /  3.2km/h 60.8% 0.00in /  0mm 446 W/m2
10:24 20.9 °F /  -6.2 °C 9.2 °F /  -12.7 °C 30.45in /  1031hPa Calm   2mph /  3.2km/h 60% 0.00in /  0mm 401 W/m2
10:29 21.4 °F /  -5.9 °C 9.7 °F /  -12.4 °C 30.45in /  1031hPa NW 0.2mph /  0.3km/h 2mph /  3.2km/h 60.1% 0.00in /  0mm 406 W/m2
10:34 21.7 °F /  -5.7 °C 9.1 °F /  -12.7 °C 30.44in /  1030.7hPa NW 0.2mph /  0.3km/h 2mph /  3.2km/h 57.6% 0.00in /  0mm 487 W/m2
10:39 22.1 °F /  -5.5 °C 9.3 °F /  -12.6 °C 30.45in /  1031hPa NW 0.1mph /  0.2km/h 2mph /  3.2km/h 57.2% 0.00in /  0mm 496 W/m2
10:44 22.9 °F /  -5.1 °C 9.8 °F /  -12.3 °C 30.44in /  1030.7hPa Calm   2mph /  3.2km/h 56.8% 0.00in /  0mm 519 W/m2
10:49 23.6 °F /  -4.7 °C 10.1 °F /  -12.2 °C 30.44in /  1030.7hPa Calm   2mph /  3.2km/h 55.6% 0.00in /  0mm 524 W/m2
10:54 24.5 °F /  -4.2 °C 10.5 °F /  -11.9 °C 30.44in /  1030.7hPa NW 0.3mph /  0.5km/h 2mph /  3.2km/h 54.7% 0.00in /  0mm 533 W/m2
10:59 24.8 °F /  -4 °C 9.5 °F /  -12.5 °C 30.44in /  1030.7hPa NW 0.3mph /  0.5km/h 2mph /  3.2km/h 51.6% 0.00in /  0mm 538 W/m2
11:04 24.7 °F /  -4.1 °C 9.3 °F /  -12.6 °C 30.44in /  1030.7hPa NW 0.2mph /  0.3km/h 2mph /  3.2km/h 51.3% 0.00in /  0mm 538 W/m2
11:09 24.9 °F /  -3.9 °C 9.4 °F /  -12.6 °C 30.43in /  1030.4hPa NW 0.1mph /  0.2km/h 2mph /  3.2km/h 51.3% 0.00in /  0mm 339 W/m2
11:14 24.9 °F /  -3.9 °C 9.2 °F /  -12.7 °C 30.43in /  1030.4hPa NW 0.6mph /  1km/h 4mph /  6.4km/h 50.7% 0.00in /  0mm 248 W/m2
11:19 24.7 °F /  -4.1 °C 8.5 °F /  -13.1 °C 30.43in /  1030.4hPa WNW 0.9mph /  1.4km/h 4mph /  6.4km/h 49.5% 0.00in /  0mm 171 W/m2
11:24 24.7 °F /  -4.1 °C 8.8 °F /  -12.9 °C 30.42in /  1030hPa WNW 0.8mph /  1.3km/h 4mph /  6.4km/h 50.1% 0.00in /  0mm 285 W/m2
11:29 24.6 °F /  -4.1 °C 7.9 °F /  -13.4 °C 30.42in /  1030hPa SSE 1.1mph /  1.8km/h 5mph /  8km/h 48.3% 0.00in /  0mm 285 W/m2
11:34 24.6 °F /  -4.1 °C 8.3 °F /  -13.2 °C 30.41in /  1029.7hPa SSE 0.5mph /  0.8km/h 5mph /  8km/h 49.3% 0.00in /  0mm 403 W/m2
11:39 24.6 °F /  -4.1 °C 7.5 °F /  -13.6 °C 30.41in /  1029.7hPa SSE 1.2mph /  1.9km/h 5mph /  8km/h 47.6% 0.00in /  0mm 336 W/m2
11:44 24.5 °F /  -4.2 °C 7.7 °F /  -13.5 °C 30.41in /  1029.7hPa South 0.4mph /  0.6km/h 5mph /  8km/h 48.1% 0.00in /  0mm 279 W/m2
11:49 24.8 °F /  -4 °C 8.4 °F /  -13.1 °C 30.40in /  1029.3hPa South 0.8mph /  1.3km/h 5mph /  8km/h 49% 0.00in /  0mm 214 W/m2
11:54 25.1 °F /  -3.8 °C 8.1 °F /  -13.3 °C 30.40in /  1029.3hPa South 1.9mph /  3.1km/h 5mph /  8km/h 47.7% 0.00in /  0mm 130 W/m2
11:59 25.3 °F /  -3.7 °C 8.2 °F /  -13.2 °C 30.40in /  1029.3hPa SSW 1mph /  1.6km/h 7mph /  11.3km/h 47.7% 0.00in /  0mm 253 W/m2
12:00 25.4 °F /  -3.7 °C 8.5 °F /  -13.1 °C 30.39in /  1029hPa SW 2mph /  3.2km/h 7mph /  11.3km/h 48% 0.00in /  0mm 144 W/m2
12:09 25.5 °F /  -3.6 °C 7.8 °F /  -13.4 °C 30.39in /  1029hPa SSW 0.8mph /  1.3km/h 3mph /  4.8km/h 46.5% 0.00in /  0mm 339 W/m2
12:14 25.7 °F /  -3.5 °C 8.2 °F /  -13.2 °C 30.39in /  1029hPa SSW 0.5mph /  0.8km/h 3mph /  4.8km/h 46.8% 0.00in /  0mm 406 W/m2
12:19 26 °F /  -3.3 °C 8.1 °F /  -13.3 °C 30.38in /  1028.7hPa South 1.1mph /  1.8km/h 7mph /  11.3km/h 46% 0.00in /  0mm 163 W/m2
12:24 26.2 °F /  -3.2 °C 7.4 °F /  -13.7 °C 30.38in /  1028.7hPa South 1.7mph /  2.7km/h 7mph /  11.3km/h 44.3% 0.00in /  0mm 165 W/m2
12:29 26.5 °F /  -3.1 °C 7.1 °F /  -13.8 °C 30.38in /  1028.7hPa SSW 1.6mph /  2.6km/h 7mph /  11.3km/h 43% 0.00in /  0mm 216 W/m2
12:34 26.9 °F /  -2.8 °C 7.6 °F /  -13.6 °C 30.38in /  1028.7hPa SW 2.8mph /  4.5km/h 9mph /  14.5km/h 43.5% 0.00in /  0mm 211 W/m2
12:39 27.2 °F /  -2.7 °C 7.7 °F /  -13.5 °C 30.37in /  1028.3hPa SW 3.2mph /  5.1km/h 9mph /  14.5km/h 43% 0.00in /  0mm 125 W/m2
12:44 27.4 °F /  -2.6 °C 8.2 °F /  -13.2 °C 30.37in /  1028.3hPa SW 1.4mph /  2.3km/h 9mph /  14.5km/h 43.6% 0.00in /  0mm 221 W/m2
12:49 27.7 °F /  -2.4 °C 8.3 °F /  -13.2 °C 30.37in /  1028.3hPa SW 1.1mph /  1.8km/h 9mph /  14.5km/h 43.3% 0.00in /  0mm 329 W/m2
12:54 27.9 °F /  -2.3 °C 8.4 °F /  -13.1 °C 30.36in /  1028hPa SW 1.6mph /  2.6km/h 9mph /  14.5km/h 43.2% 0.00in /  0mm 107 W/m2
12:58 28 °F /  -2.2 °C 8.5 °F /  -13.1 °C 30.36in /  1028hPa SW 1.5mph /  2.4km/h 9mph /  14.5km/h 43.1% 0.00in /  0mm 438 W/m2
13:04 28.1 °F /  -2.2 °C 8.1 °F /  -13.3 °C 30.36in /  1028hPa SW 2.3mph /  3.7km/h 11mph /  17.7km/h 42.2% 0.00in /  0mm 338 W/m2
13:09 28 °F /  -2.2 °C 7.4 °F /  -13.7 °C 30.36in /  1028hPa SSW 2.6mph /  4.2km/h 12mph /  19.3km/h 41.2% 0.00in /  0mm 86 W/m2
13:14 27.9 °F /  -2.3 °C 7.8 °F /  -13.4 °C 30.35in /  1027.7hPa SSW 1.2mph /  1.9km/h 12mph /  19.3km/h 42% 0.00in /  0mm 97 W/m2
13:19 27.9 °F /  -2.3 °C 7.8 °F /  -13.4 °C 30.35in /  1027.7hPa SSW 1.5mph /  2.4km/h 12mph /  19.3km/h 42% 0.00in /  0mm 181 W/m2
13:24 28.2 °F /  -2.1 °C 8.1 °F /  -13.3 °C 30.35in /  1027.7hPa SW 3.6mph /  5.8km/h 12mph /  19.3km/h 42% 0.00in /  0mm 181 W/m2
13:29 28.6 °F /  -1.9 °C 8.8 °F /  -12.9 °C 30.34in /  1027.3hPa SW 1.5mph /  2.4km/h 12mph /  19.3km/h 42.7% 0.00in /  0mm 211 W/m2
13:34 28.9 °F /  -1.7 °C 8.7 °F /  -12.9 °C 30.34in /  1027.3hPa SW 2.6mph /  4.2km/h 12mph /  19.3km/h 42% 0.00in /  0mm 246 W/m2
13:39 29.1 °F /  -1.6 °C 8.9 °F /  -12.8 °C 30.34in /  1027.3hPa SW 1mph /  1.6km/h 11mph /  17.7km/h 42% 0.00in /  0mm 417 W/m2
13:44 29.1 °F /  -1.6 °C 8.4 °F /  -13.1 °C 30.33in /  1027hPa South 2.7mph /  4.3km/h 11mph /  17.7km/h 40.9% 0.00in /  0mm 441 W/m2
13:49 29 °F /  -1.7 °C 8.4 °F /  -13.1 °C 30.33in /  1027hPa SSW 3.2mph /  5.1km/h 11mph /  17.7km/h 41.3% 0.00in /  0mm 352 W/m2
13:54 28.7 °F /  -1.8 °C 8 °F /  -13.3 °C 30.32in /  1026.6hPa South 2.2mph /  3.5km/h 11mph /  17.7km/h 41% 0.00in /  0mm 202 W/m2
13:59 28.7 °F /  -1.8 °C 9.1 °F /  -12.7 °C 30.32in /  1026.6hPa SSW 2mph /  3.2km/h 11mph /  17.7km/h 43.2% 0.00in /  0mm 118 W/m2
14:04 28.9 °F /  -1.7 °C 9.6 °F /  -12.4 °C 30.32in /  1026.6hPa South 2.1mph /  3.4km/h 12mph /  19.3km/h 43.8% 0.00in /  0mm 264 W/m2
14:09 28.9 °F /  -1.7 °C 10.2 °F /  -12.1 °C 30.32in /  1026.6hPa South 2mph /  3.2km/h 12mph /  19.3km/h 44.9% 0.00in /  0mm 262 W/m2
14:14 29 °F /  -1.7 °C 10.7 °F /  -11.8 °C 30.32in /  1026.6hPa SSW 1.9mph /  3.1km/h 12mph /  19.3km/h 45.9% 0.00in /  0mm 257 W/m2
14:19 29 °F /  -1.7 °C 11.1 °F /  -11.6 °C 30.31in /  1026.3hPa South 1.9mph /  3.1km/h 12mph /  19.3km/h 46.5% 0.00in /  0mm 404 W/m2
14:24 28.9 °F /  -1.7 °C 11.6 °F /  -11.3 °C 30.31in /  1026.3hPa South 2.3mph /  3.7km/h 12mph /  19.3km/h 47.8% 0.00in /  0mm 267 W/m2
14:29 28.7 °F /  -1.8 °C 11.9 °F /  -11.2 °C 30.30in /  1026hPa South 3.4mph /  5.5km/h 12mph /  19.3km/h 48.9% 0.00in /  0mm 179 W/m2
14:34 28.6 °F /  -1.9 °C 12 °F /  -11.1 °C 30.30in /  1026hPa South 2.2mph /  3.5km/h 12mph /  19.3km/h 49.4% 0.00in /  0mm 163 W/m2
14:39 28.6 °F /  -1.9 °C 12.7 °F /  -10.7 °C 30.30in /  1026hPa South 1.2mph /  1.9km/h 9mph /  14.5km/h 50.9% 0.00in /  0mm 93 W/m2
14:44 28.6 °F /  -1.9 °C 13 °F /  -10.6 °C 30.30in /  1026hPa SSW 1.9mph /  3.1km/h 9mph /  14.5km/h 51.5% 0.00in /  0mm 114 W/m2
14:49 28.6 °F /  -1.9 °C 13.5 °F /  -10.3 °C 30.30in /  1026hPa SSW 2.6mph /  4.2km/h 9mph /  14.5km/h 52.7% 0.00in /  0mm 91 W/m2
14:54 28.5 °F /  -1.9 °C 13.4 °F /  -10.3 °C 30.29in /  1025.6hPa SSW 1.4mph /  2.3km/h 9mph /  14.5km/h 52.8% 0.00in /  0mm 214 W/m2
14:59 28.4 °F /  -2 °C 13.8 °F /  -10.1 °C 30.29in /  1025.6hPa SW 1.8mph /  2.9km/h 9mph /  14.5km/h 54% 0.00in /  0mm 214 W/m2
15:04 28.3 °F /  -2.1 °C 14 °F /  -10 °C 30.30in /  1026hPa SSW 1.1mph /  1.8km/h 9mph /  14.5km/h 54.6% 0.00in /  0mm 32 W/m2
15:09 28.3 °F /  -2.1 °C 14.2 °F /  -9.9 °C 30.30in /  1026hPa SSW 1.2mph /  1.9km/h 4mph /  6.4km/h 54.9% 0.00in /  0mm 32 W/m2
15:14 28.4 °F /  -2 °C 13.9 °F /  -10.1 °C 30.30in /  1026hPa SSW 1.5mph /  2.4km/h 7mph /  11.3km/h 54% 0.00in /  0mm 30 W/m2
15:19 28.4 °F /  -2 °C 13.6 °F /  -10.2 °C 30.30in /  1026hPa South 1.9mph /  3.1km/h 7mph /  11.3km/h 53.3% 0.00in /  0mm 30 W/m2
15:24 28.3 °F /  -2.1 °C 13 °F /  -10.6 °C 30.30in /  1026hPa SSW 1.8mph /  2.9km/h 7mph /  11.3km/h 52% 0.00in /  0mm 28 W/m2
15:29 28.3 °F /  -2.1 °C 12.9 °F /  -10.6 °C 30.30in /  1026hPa SSW 1mph /  1.6km/h 7mph /  11.3km/h 52% 0.00in /  0mm 28 W/m2
15:34 28.4 °F /  -2 °C 12.8 °F /  -10.7 °C 30.30in /  1026hPa SSW 1.8mph /  2.9km/h 7mph /  11.3km/h 51.5% 0.00in /  0mm 26 W/m2
15:39 28.5 °F /  -1.9 °C 11.5 °F /  -11.4 °C 30.30in /  1026hPa SW 3mph /  4.8km/h 7mph /  11.3km/h 48.4% 0.00in /  0mm 25 W/m2
15:44 28.5 °F /  -1.9 °C 11.1 °F /  -11.6 °C 30.30in /  1026hPa SW 3.7mph /  6km/h 11mph /  17.7km/h 47.5% 0.00in /  0mm 25 W/m2
15:49 28.5 °F /  -1.9 °C 11.1 °F /  -11.6 °C 30.29in /  1025.6hPa SW 1.8mph /  2.9km/h 11mph /  17.7km/h 47.5% 0.00in /  0mm 23 W/m2
15:54 28.5 °F /  -1.9 °C 10.9 °F /  -11.7 °C 30.29in /  1025.6hPa SW 2.7mph /  4.3km/h 11mph /  17.7km/h 47% 0.00in /  0mm 23 W/m2
15:59 28.6 °F /  -1.9 °C 11 °F /  -11.7 °C 30.28in /  1025.3hPa SW 1.4mph /  2.3km/h 11mph /  17.7km/h 47.1% 0.00in /  0mm 21 W/m2
16:09 28.6 °F /  -1.9 °C 10.9 °F /  -11.7 °C 30.29in /  1025.6hPa SW 1mph /  1.6km/h 3mph /  4.8km/h 47% 0.00in /  0mm 19 W/m2
16:14 28.6 °F /  -1.9 °C 11.4 °F /  -11.4 °C 30.29in /  1025.6hPa SW 0.3mph /  0.5km/h 3mph /  4.8km/h 47.9% 0.00in /  0mm 19 W/m2
16:19 28.6 °F /  -1.9 °C 11.4 °F /  -11.4 °C 30.28in /  1025.3hPa SW 1.3mph /  2.1km/h 7mph /  11.3km/h 48% 0.00in /  0mm 18 W/m2
16:24 28.5 °F /  -1.9 °C 11 °F /  -11.7 °C 30.28in /  1025.3hPa SSW 1.8mph /  2.9km/h 9mph /  14.5km/h 47.3% 0.00in /  0mm 16 W/m2
16:29 28.4 °F /  -2 °C 10.7 °F /  -11.8 °C 30.28in /  1025.3hPa South 1.8mph /  2.9km/h 9mph /  14.5km/h 47% 0.00in /  0mm 16 W/m2
16:34 28.2 °F /  -2.1 °C 10.8 °F /  -11.8 °C 30.28in /  1025.3hPa South 1.2mph /  1.9km/h 9mph /  14.5km/h 47.5% 0.00in /  0mm 14 W/m2
16:39 28.1 °F /  -2.2 °C 11.1 °F /  -11.6 °C 30.27in /  1024.9hPa SSW 0.2mph /  0.3km/h 3mph /  4.8km/h 48.5% 0.00in /  0mm 11 W/m2
16:44 27.9 °F /  -2.3 °C 11.3 °F /  -11.5 °C 30.27in /  1024.9hPa SSW 0.7mph /  1.1km/h 3mph /  4.8km/h 49.2% 0.00in /  0mm 7 W/m2
16:49 27.7 °F /  -2.4 °C 11.6 °F /  -11.3 °C 30.27in /  1024.9hPa South 0.8mph /  1.3km/h 3mph /  4.8km/h 50.1% 0.00in /  0mm 5 W/m2
16:54 27.5 °F /  -2.5 °C 11.9 °F /  -11.2 °C 30.26in /  1024.6hPa SSW 1.2mph /  1.9km/h 6mph /  9.7km/h 51.3% 0.00in /  0mm 0 W/m2
16:59 27.2 °F /  -2.7 °C 11.9 °F /  -11.2 °C 30.26in /  1024.6hPa South 1.6mph /  2.6km/h 7mph /  11.3km/h 52% 0.00in /  0mm 0 W/m2
17:04 27 °F /  -2.8 °C 12.3 °F /  -10.9 °C 30.26in /  1024.6hPa SSW 0.9mph /  1.4km/h 7mph /  11.3km/h 53.2% 0.00in /  0mm 0 W/m2
17:08 26.9 °F /  -2.8 °C 12.5 °F /  -10.8 °C 30.26in /  1024.6hPa SW 0.6mph /  1km/h 3mph /  4.8km/h 54% 0.00in /  0mm 0 W/m2
17:14 26.8 °F /  -2.9 °C 12.8 °F /  -10.7 °C 30.27in /  1024.9hPa SW 0.5mph /  0.8km/h 3mph /  4.8km/h 55.1% 0.00in /  0mm 0 W/m2
17:19 26.7 °F /  -2.9 °C 13.1 °F /  -10.5 °C 30.27in /  1024.9hPa SW 1.1mph /  1.8km/h 7mph /  11.3km/h 56% 0.00in /  0mm 0 W/m2
17:24 26.6 °F /  -3 °C 13 °F /  -10.6 °C 30.27in /  1024.9hPa SSW 0.7mph /  1.1km/h 7mph /  11.3km/h 56.1% 0.00in /  0mm 0 W/m2
17:29 26.5 °F /  -3.1 °C 13.3 °F /  -10.4 °C 30.28in /  1025.3hPa SW 2mph /  3.2km/h 7mph /  11.3km/h 57% 0.00in /  0mm 0 W/m2
17:34 26.4 °F /  -3.1 °C 13.6 °F /  -10.2 °C 30.28in /  1025.3hPa SW 1.5mph /  2.4km/h 7mph /  11.3km/h 57.9% 0.00in /  0mm 0 W/m2
17:39 26.4 °F /  -3.1 °C 13.6 °F /  -10.2 °C 30.27in /  1024.9hPa SW 0.4mph /  0.6km/h 6mph /  9.7km/h 58% 0.00in /  0mm 0 W/m2
17:44 26.3 °F /  -3.2 °C 14 °F /  -10 °C 30.27in /  1024.9hPa SW 0.1mph /  0.2km/h 6mph /  9.7km/h 59% 0.00in /  0mm 0 W/m2
17:49 26.3 °F /  -3.2 °C 13.9 °F /  -10.1 °C 30.27in /  1024.9hPa Calm   6mph /  9.7km/h 59% 0.00in /  0mm 0 W/m2
17:54 26.2 °F /  -3.2 °C 13.8 °F /  -10.1 °C 30.27in /  1024.9hPa SW 0.1mph /  0.2km/h 6mph /  9.7km/h 59% 0.00in /  0mm 0 W/m2
17:59 26.1 °F /  -3.3 °C 13.9 °F /  -10.1 °C 30.27in /  1024.9hPa SW 0.1mph /  0.2km/h 6mph /  9.7km/h 59.4% 0.00in /  0mm 0 W/m2
18:04 26 °F /  -3.3 °C 14 °F /  -10 °C 30.27in /  1024.9hPa Calm   6mph /  9.7km/h 59.9% 0.00in /  0mm 0 W/m2
18:09 26 °F /  -3.3 °C 14 °F /  -10 °C 30.27in /  1024.9hPa Calm   1mph /  1.6km/h 60% 0.00in /  0mm 0 W/m2
18:14 25.8 °F /  -3.4 °C 13.9 °F /  -10.1 °C 30.26in /  1024.6hPa Calm   1mph /  1.6km/h 60% 0.00in /  0mm 0 W/m2
18:19 25.8 °F /  -3.4 °C 13.8 °F /  -10.1 °C 30.26in /  1024.6hPa Calm   1mph /  1.6km/h 60% 0.00in /  0mm 0 W/m2
18:24 25.7 °F /  -3.5 °C 13.7 °F /  -10.2 °C 30.26in /  1024.6hPa SW 0.1mph /  0.2km/h 1mph /  1.6km/h 60% 0.00in /  0mm 0 W/m2
18:29 25.6 °F /  -3.6 °C 13.7 °F /  -10.2 °C 30.26in /  1024.6hPa Calm   1mph /  1.6km/h 60% 0.00in /  0mm 0 W/m2
18:34 25.5 °F /  -3.6 °C 13.7 °F /  -10.2 °C 30.26in /  1024.6hPa Calm   1mph /  1.6km/h 60.6% 0.00in /  0mm 0 W/m2
18:39 25.3 °F /  -3.7 °C 13.8 °F /  -10.1 °C 30.26in /  1024.6hPa SW 0.1mph /  0.2km/h 2mph /  3.2km/h 61% 0.00in /  0mm 0 W/m2
18:44 25.2 °F /  -3.8 °C 13.7 °F /  -10.2 °C 30.26in /  1024.6hPa SW 0.1mph /  0.2km/h 2mph /  3.2km/h 61% 0.00in /  0mm 0 W/m2
18:49 25.1 °F /  -3.8 °C 13.8 °F /  -10.1 °C 30.25in /  1024.3hPa SW 0.1mph /  0.2km/h 2mph /  3.2km/h 61.7% 0.00in /  0mm 0 W/m2
18:54 25 °F /  -3.9 °C 13.8 °F /  -10.1 °C 30.26in /  1024.6hPa Calm   2mph /  3.2km/h 62% 0.00in /  0mm 0 W/m2
18:59 24.8 °F /  -4 °C 13.7 °F /  -10.2 °C 30.26in /  1024.6hPa Calm   2mph /  3.2km/h 62% 0.00in /  0mm 0 W/m2
19:04 24.7 °F /  -4.1 °C 13.7 °F /  -10.2 °C 30.25in /  1024.3hPa Calm   2mph /  3.2km/h 62.4% 0.00in /  0mm 0 W/m2
19:09 24.6 °F /  -4.1 °C 13.9 °F /  -10.1 °C 30.25in /  1024.3hPa Calm     63% 0.00in /  0mm 0 W/m2
19:14 24.5 °F /  -4.2 °C 13.8 °F /  -10.1 °C 30.25in /  1024.3hPa Calm   1mph /  1.6km/h 63% 0.00in /  0mm 0 W/m2
19:19 24.5 °F /  -4.2 °C 14 °F /  -10 °C 30.25in /  1024.3hPa SW 0.1mph /  0.2km/h 1mph /  1.6km/h 63.7% 0.00in /  0mm 0 W/m2
19:24 24.5 °F /  -4.2 °C 14.1 °F /  -9.9 °C 30.26in /  1024.6hPa Calm   1mph /  1.6km/h 64% 0.00in /  0mm 0 W/m2
19:29 24.4 °F /  -4.2 °C 14 °F /  -10 °C 30.26in /  1024.6hPa Calm   1mph /  1.6km/h 64% 0.00in /  0mm 0 W/m2
19:34 24.3 °F /  -4.3 °C 14.1 °F /  -9.9 °C 30.25in /  1024.3hPa Calm   1mph /  1.6km/h 64.6% 0.00in /  0mm 0 W/m2
19:39 24.2 °F /  -4.3 °C 14.2 °F /  -9.9 °C 30.25in /  1024.3hPa Calm   1mph /  1.6km/h 65% 0.00in /  0mm 0 W/m2
19:44 24.1 °F /  -4.4 °C 14.1 °F /  -9.9 °C 30.24in /  1023.9hPa SW 0.1mph /  0.2km/h 2mph /  3.2km/h 65% 0.00in /  0mm 0 W/m2
19:49 24.1 °F /  -4.4 °C 14.1 °F /  -9.9 °C 30.24in /  1023.9hPa SW 0.2mph /  0.3km/h 3mph /  4.8km/h 65% 0.00in /  0mm 0 W/m2
19:54 24 °F /  -4.4 °C 14.3 °F /  -9.8 °C 30.24in /  1023.9hPa SW 0.2mph /  0.3km/h 3mph /  4.8km/h 66% 0.00in /  0mm 0 W/m2
19:59 24 °F /  -4.4 °C 14.3 °F /  -9.8 °C 30.23in /  1023.6hPa SW 0.1mph /  0.2km/h 3mph /  4.8km/h 66% 0.00in /  0mm 0 W/m2
20:00 24 °F /  -4.4 °C 14.3 °F /  -9.8 °C 30.23in /  1023.6hPa Calm   3mph /  4.8km/h 66% 0.00in /  0mm 0 W/m2
20:09 23.9 °F /  -4.5 °C 14.2 °F /  -9.9 °C 30.24in /  1023.9hPa Calm     66% 0.00in /  0mm 0 W/m2
20:14 23.8 °F /  -4.6 °C 14.1 °F /  -9.9 °C 30.24in /  1023.9hPa Calm     66% 0.00in /  0mm 0 W/m2
20:19 23.7 °F /  -4.6 °C 14.2 °F /  -9.9 °C 30.24in /  1023.9hPa Calm     66.7% 0.00in /  0mm 0 W/m2
20:24 23.5 °F /  -4.7 °C 14.2 °F /  -9.9 °C 30.23in /  1023.6hPa Calm     67% 0.00in /  0mm 0 W/m2
20:29 23.4 °F /  -4.8 °C 14.3 °F /  -9.8 °C 30.23in /  1023.6hPa Calm     67.7% 0.00in /  0mm 0 W/m2
20:34 23.3 °F /  -4.8 °C 14.3 °F /  -9.8 °C 30.23in /  1023.6hPa Calm     68% 0.00in /  0mm 0 W/m2
20:39 23.2 °F /  -4.9 °C 14.2 °F /  -9.9 °C 30.24in /  1023.9hPa Calm     68% 0.00in /  0mm 0 W/m2
20:44 23 °F /  -5 °C 14.1 °F /  -9.9 °C 30.24in /  1023.9hPa Calm     68.1% 0.00in /  0mm 0 W/m2
20:49 22.8 °F /  -5.1 °C 14.2 °F /  -9.9 °C 30.23in /  1023.6hPa Calm     69% 0.00in /  0mm 0 W/m2
20:54 22.6 °F /  -5.2 °C 14.3 °F /  -9.8 °C 30.22in /  1023.2hPa SW 0.2mph /  0.3km/h 2mph /  3.2km/h 70.1% 0.00in /  0mm 0 W/m2
20:59 22.7 °F /  -5.2 °C 14.8 °F /  -9.6 °C 30.22in /  1023.2hPa Calm   2mph /  3.2km/h 71% 0.00in /  0mm 0 W/m2
21:04 22.9 °F /  -5.1 °C 15 °F /  -9.4 °C 30.22in /  1023.2hPa Calm   2mph /  3.2km/h 71% 0.00in /  0mm 0 W/m2
21:09 23 °F /  -5 °C 15 °F /  -9.4 °C 30.22in /  1023.2hPa Calm     71% 0.00in /  0mm 0 W/m2
21:14 23 °F /  -5 °C 15 °F /  -9.4 °C 30.22in /  1023.2hPa Calm     71% 0.00in /  0mm 0 W/m2
21:19 22.9 °F /  -5.1 °C 14.9 °F /  -9.5 °C 30.21in /  1022.9hPa Calm     71% 0.00in /  0mm 0 W/m2
21:24 22.9 °F /  -5.1 °C 14.9 °F /  -9.5 °C 30.21in /  1022.9hPa Calm     71% 0.00in /  0mm 0 W/m2
21:29 22.8 °F /  -5.1 °C 14.9 °F /  -9.5 °C 30.21in /  1022.9hPa Calm     71.2% 0.00in /  0mm 0 W/m2
21:34 22.7 °F /  -5.2 °C 15.1 °F /  -9.4 °C 30.22in /  1023.2hPa Calm     72% 0.00in /  0mm 0 W/m2
21:39 22.6 °F /  -5.2 °C 15.1 °F /  -9.4 °C 30.21in /  1022.9hPa Calm     72.5% 0.00in /  0mm 0 W/m2
21:44 22.6 °F /  -5.2 °C 15.4 °F /  -9.2 °C 30.20in /  1022.6hPa Calm     73.1% 0.00in /  0mm 0 W/m2
21:49 22.7 °F /  -5.2 °C 15.7 °F /  -9.1 °C 30.21in /  1022.9hPa Calm     74% 0.00in /  0mm 0 W/m2
21:54 22.7 °F /  -5.2 °C 15.7 °F /  -9.1 °C 30.21in /  1022.9hPa Calm   1mph /  1.6km/h 74% 0.00in /  0mm 0 W/m2
21:59 22.8 °F /  -5.1 °C 15.8 °F /  -9 °C 30.20in /  1022.6hPa Calm   1mph /  1.6km/h 74% 0.00in /  0mm 0 W/m2
22:04 22.9 °F /  -5.1 °C 16 °F /  -8.9 °C 30.20in /  1022.6hPa Calm   1mph /  1.6km/h 74.6% 0.00in /  0mm 0 W/m2
22:09 23 °F /  -5 °C 16.3 °F /  -8.7 °C 30.20in /  1022.6hPa Calm     75% 0.00in /  0mm 0 W/m2
22:14 23 °F /  -5 °C 16.3 °F /  -8.7 °C 30.20in /  1022.6hPa Calm     75% 0.00in /  0mm 0 W/m2
22:19 23.1 °F /  -4.9 °C 16.4 °F /  -8.7 °C 30.20in /  1022.6hPa Calm     75% 0.00in /  0mm 0 W/m2
22:24 23.1 °F /  -4.9 °C 16.4 °F /  -8.7 °C 30.20in /  1022.6hPa Calm     75% 0.00in /  0mm 0 W/m2
22:29 23.1 °F /  -4.9 °C 16.4 °F /  -8.7 °C 30.20in /  1022.6hPa Calm     75% 0.00in /  0mm 0 W/m2
22:34 23.1 °F /  -4.9 °C 16.4 °F /  -8.7 °C 30.20in /  1022.6hPa Calm     75% 0.00in /  0mm 0 W/m2
22:39 23.1 °F /  -4.9 °C 16.4 °F /  -8.7 °C 30.20in /  1022.6hPa Calm     75.2% 0.00in /  0mm 0 W/m2
22:44 23.1 °F /  -4.9 °C 16.6 °F /  -8.6 °C 30.20in /  1022.6hPa Calm     75.6% 0.00in /  0mm 0 W/m2
22:49 23.3 °F /  -4.8 °C 16.8 °F /  -8.4 °C 30.20in /  1022.6hPa Calm     76% 0.00in /  0mm 0 W/m2
22:54 23.5 °F /  -4.7 °C 17.1 °F /  -8.3 °C 30.20in /  1022.6hPa Calm     76.3% 0.00in /  0mm 0 W/m2
22:59 23.7 °F /  -4.6 °C 17.5 °F /  -8.1 °C 30.20in /  1022.6hPa Calm     77% 0.00in /  0mm 0 W/m2
23:00 23.8 °F /  -4.6 °C 17.7 °F /  -7.9 °C 30.19in /  1022.2hPa Calm     77% 0.00in /  0mm 0 W/m2
23:09 24.2 °F /  -4.3 °C 18 °F /  -7.8 °C 30.19in /  1022.2hPa Calm     77% 0.00in /  0mm 0 W/m2
23:14 24.5 °F /  -4.2 °C 18.4 °F /  -7.6 °C 30.20in /  1022.6hPa SW 0.1mph /  0.2km/h 1mph /  1.6km/h 77.5% 0.00in /  0mm 0 W/m2
23:19 24.7 °F /  -4.1 °C 18.7 °F /  -7.4 °C 30.19in /  1022.2hPa Calm   1mph /  1.6km/h 77.4% 0.00in /  0mm 0 W/m2
23:24 24.9 °F /  -3.9 °C 18.7 °F /  -7.4 °C 30.19in /  1022.2hPa Calm   1mph /  1.6km/h 77% 0.00in /  0mm 0 W/m2
23:29 24.9 °F /  -3.9 °C 18.8 °F /  -7.3 °C 30.19in /  1022.2hPa Calm   1mph /  1.6km/h 77% 0.00in /  0mm 0 W/m2
23:34 25 °F /  -3.9 °C 18.8 °F /  -7.3 °C 30.19in /  1022.2hPa Calm   1mph /  1.6km/h 77% 0.00in /  0mm 0 W/m2
23:39 25.1 °F /  -3.8 °C 18.9 °F /  -7.3 °C 30.19in /  1022.2hPa Calm     77% 0.00in /  0mm 0 W/m2
23:44 25.1 °F /  -3.8 °C 18.8 °F /  -7.3 °C 30.19in /  1022.2hPa Calm     76.8% 0.00in /  0mm 0 W/m2
23:49 25 °F /  -3.9 °C 18.5 °F /  -7.5 °C 30.19in /  1022.2hPa Calm     76% 0.00in /  0mm 0 W/m2
23:54 24.9 °F /  -3.9 °C 18.5 °F /  -7.5 °C 30.18in /  1021.9hPa Calm     76% 0.00in /  0mm 0 W/m2
23:59 24.9 °F /  -3.9 °C 18.4 °F /  -7.6 °C 30.18in /  1021.9hPa SW 0.1mph /  0.2km/h 2mph /  3.2km/h 76% 0.00in /  0mm 0 W/m2
Hartford County Weather
Compliments of Weather Underground - 2 mb